sensor_id;sensor_type;location;lat;lon;timestamp;pressure;altitude;pressure_sealevel;temperature;humidity
63447;BME280;49577;49.872;6.190;2024-03-08T00:02:02;99332.73;;;2.11;76.18
63447;BME280;49577;49.872;6.190;2024-03-08T00:04:28;99328.61;;;2.10;76.20
63447;BME280;49577;49.872;6.190;2024-03-08T00:06:53;99324.84;;;2.09;76.02
63447;BME280;49577;49.872;6.190;2024-03-08T00:09:18;99326.80;;;2.07;76.00
63447;BME280;49577;49.872;6.190;2024-03-08T00:11:44;99325.20;;;2.04;76.04
63447;BME280;49577;49.872;6.190;2024-03-08T00:14:09;99322.50;;;2.02;76.31
63447;BME280;49577;49.872;6.190;2024-03-08T00:16:34;99320.38;;;1.98;76.21
63447;BME280;49577;49.872;6.190;2024-03-08T00:19:00;99317.80;;;1.93;76.10
63447;BME280;49577;49.872;6.190;2024-03-08T00:21:26;99314.30;;;1.83;76.39
63447;BME280;49577;49.872;6.190;2024-03-08T00:23:52;99316.67;;;1.73;76.99
63447;BME280;49577;49.872;6.190;2024-03-08T00:26:19;99313.39;;;1.68;77.02
63447;BME280;49577;49.872;6.190;2024-03-08T00:28:44;99312.52;;;1.63;76.97
63447;BME280;49577;49.872;6.190;2024-03-08T00:31:09;99314.41;;;1.63;77.28
63447;BME280;49577;49.872;6.190;2024-03-08T00:33:35;99312.77;;;1.61;77.40
63447;BME280;49577;49.872;6.190;2024-03-08T00:36:00;99309.61;;;1.57;77.47
63447;BME280;49577;49.872;6.190;2024-03-08T00:38:25;99302.17;;;1.58;77.43
63447;BME280;49577;49.872;6.190;2024-03-08T00:40:51;99300.99;;;1.58;77.32
63447;BME280;49577;49.872;6.190;2024-03-08T00:43:16;99304.52;;;1.55;77.55
63447;BME280;49577;49.872;6.190;2024-03-08T00:45:41;99299.66;;;1.56;77.50
63447;BME280;49577;49.872;6.190;2024-03-08T00:48:09;99295.27;;;1.54;77.48
63447;BME280;49577;49.872;6.190;2024-03-08T00:50:36;99288.86;;;1.49;77.46
63447;BME280;49577;49.872;6.190;2024-03-08T00:53:01;99286.34;;;1.47;77.47
63447;BME280;49577;49.872;6.190;2024-03-08T00:55:27;99280.92;;;1.44;77.31
63447;BME280;49577;49.872;6.190;2024-03-08T00:57:52;99277.48;;;1.39;77.54
63447;BME280;49577;49.872;6.190;2024-03-08T01:00:19;99274.63;;;1.37;77.98
63447;BME280;49577;49.872;6.190;2024-03-08T01:02:46;99268.27;;;1.36;78.37
63447;BME280;49577;49.872;6.190;2024-03-08T01:05:11;99267.06;;;1.42;78.24
63447;BME280;49577;49.872;6.190;2024-03-08T01:07:36;99266.16;;;1.43;77.85
63447;BME280;49577;49.872;6.190;2024-03-08T01:10:02;99264.90;;;1.45;77.83
63447;BME280;49577;49.872;6.190;2024-03-08T01:12:28;99265.18;;;1.47;77.69
63447;BME280;49577;49.872;6.190;2024-03-08T01:14:54;99257.19;;;1.44;77.47
63447;BME280;49577;49.872;6.190;2024-03-08T01:17:19;99256.01;;;1.43;77.64
63447;BME280;49577;49.872;6.190;2024-03-08T01:19:44;99254.48;;;1.42;77.64
63447;BME280;49577;49.872;6.190;2024-03-08T01:22:10;99248.99;;;1.41;77.56
63447;BME280;49577;49.872;6.190;2024-03-08T01:24:35;99245.51;;;1.43;77.92
63447;BME280;49577;49.872;6.190;2024-03-08T01:27:01;99243.57;;;1.44;77.89
63447;BME280;49577;49.872;6.190;2024-03-08T01:29:27;99242.48;;;1.46;77.66
63447;BME280;49577;49.872;6.190;2024-03-08T01:31:54;99237.75;;;1.43;77.88
63447;BME280;49577;49.872;6.190;2024-03-08T01:34:19;99235.55;;;1.42;77.68
63447;BME280;49577;49.872;6.190;2024-03-08T01:36:45;99227.15;;;1.41;77.45
63447;BME280;49577;49.872;6.190;2024-03-08T01:39:10;99229.46;;;1.39;77.59
63447;BME280;49577;49.872;6.190;2024-03-08T01:41:36;99225.96;;;1.36;77.75
63447;BME280;49577;49.872;6.190;2024-03-08T01:44:01;99225.13;;;1.35;77.62
63447;BME280;49577;49.872;6.190;2024-03-08T01:46:27;99224.06;;;1.35;77.82
63447;BME280;49577;49.872;6.190;2024-03-08T01:48:53;99217.23;;;1.39;77.94
63447;BME280;49577;49.872;6.190;2024-03-08T01:51:19;99220.20;;;1.43;77.83
63447;BME280;49577;49.872;6.190;2024-03-08T01:53:45;99219.56;;;1.47;77.80
63447;BME280;49577;49.872;6.190;2024-03-08T01:56:11;99213.27;;;1.50;77.62
63447;BME280;49577;49.872;6.190;2024-03-08T01:58:38;99209.81;;;1.50;77.42
63447;BME280;49577;49.872;6.190;2024-03-08T02:01:07;99204.59;;;1.52;77.67
63447;BME280;49577;49.872;6.190;2024-03-08T02:03:32;99201.56;;;1.55;77.51
63447;BME280;49577;49.872;6.190;2024-03-08T02:05:58;99195.70;;;1.55;77.19
63447;BME280;49577;49.872;6.190;2024-03-08T02:08:26;99197.34;;;1.53;77.13
63447;BME280;49577;49.872;6.190;2024-03-08T02:10:51;99193.40;;;1.52;77.27
63447;BME280;49577;49.872;6.190;2024-03-08T02:13:16;99189.80;;;1.47;77.02
63447;BME280;49577;49.872;6.190;2024-03-08T02:18:20;99180.95;;;1.43;77.94
63447;BME280;49577;49.872;6.190;2024-03-08T02:20:46;99181.90;;;1.46;77.64
63447;BME280;49577;49.872;6.190;2024-03-08T02:23:12;99174.12;;;1.47;77.73
63447;BME280;49577;49.872;6.190;2024-03-08T02:25:39;99167.45;;;1.51;77.87
63447;BME280;49577;49.872;6.190;2024-03-08T02:28:04;99167.40;;;1.57;77.69
63447;BME280;49577;49.872;6.190;2024-03-08T02:30:29;99165.39;;;1.61;77.52
63447;BME280;49577;49.872;6.190;2024-03-08T02:32:55;99161.88;;;1.63;77.18
63447;BME280;49577;49.872;6.190;2024-03-08T02:35:20;99162.94;;;1.62;77.25
63447;BME280;49577;49.872;6.190;2024-03-08T02:37:46;99157.45;;;1.62;77.12
63447;BME280;49577;49.872;6.190;2024-03-08T02:40:12;99152.95;;;1.63;77.18
63447;BME280;49577;49.872;6.190;2024-03-08T02:42:38;99150.15;;;1.63;77.24
63447;BME280;49577;49.872;6.190;2024-03-08T02:45:03;99150.03;;;1.62;77.05
63447;BME280;49577;49.872;6.190;2024-03-08T02:47:30;99147.31;;;1.61;77.14
63447;BME280;49577;49.872;6.190;2024-03-08T02:49:56;99142.31;;;1.62;77.01
63447;BME280;49577;49.872;6.190;2024-03-08T02:52:21;99137.67;;;1.62;76.98
63447;BME280;49577;49.872;6.190;2024-03-08T02:54:47;99137.85;;;1.62;77.01
63447;BME280;49577;49.872;6.190;2024-03-08T02:57:12;99136.98;;;1.61;76.88
63447;BME280;49577;49.872;6.190;2024-03-08T02:59:39;99137.35;;;1.60;76.91
63447;BME280;49577;49.872;6.190;2024-03-08T03:02:06;99133.80;;;1.59;76.80
63447;BME280;49577;49.872;6.190;2024-03-08T03:04:35;99135.58;;;1.57;77.02
63447;BME280;49577;49.872;6.190;2024-03-08T03:07:00;99132.48;;;1.57;76.86
63447;BME280;49577;49.872;6.190;2024-03-08T03:09:26;99132.69;;;1.56;76.74
63447;BME280;49577;49.872;6.190;2024-03-08T03:11:53;99131.75;;;1.53;76.85
63447;BME280;49577;49.872;6.190;2024-03-08T03:14:19;99128.35;;;1.52;76.75
63447;BME280;49577;49.872;6.190;2024-03-08T03:16:44;99128.95;;;1.49;76.77
63447;BME280;49577;49.872;6.190;2024-03-08T03:19:11;99128.68;;;1.47;76.94
63447;BME280;49577;49.872;6.190;2024-03-08T03:21:36;99125.02;;;1.44;76.75
63447;BME280;49577;49.872;6.190;2024-03-08T03:24:03;99123.98;;;1.43;76.93
63447;BME280;49577;49.872;6.190;2024-03-08T03:26:29;99121.27;;;1.42;76.91
63447;BME280;49577;49.872;6.190;2024-03-08T03:28:55;99121.67;;;1.40;77.04
63447;BME280;49577;49.872;6.190;2024-03-08T03:31:20;99116.68;;;1.40;77.10
63447;BME280;49577;49.872;6.190;2024-03-08T03:33:49;99115.16;;;1.40;77.03
63447;BME280;49577;49.872;6.190;2024-03-08T03:36:16;99115.99;;;1.35;76.70
63447;BME280;49577;49.872;6.190;2024-03-08T03:38:42;99112.44;;;1.28;76.95
63447;BME280;49577;49.872;6.190;2024-03-08T03:41:07;99111.48;;;1.25;77.09
63447;BME280;49577;49.872;6.190;2024-03-08T03:43:35;99111.88;;;1.23;77.33
63447;BME280;49577;49.872;6.190;2024-03-08T03:46:05;99108.25;;;1.19;77.18
63447;BME280;49577;49.872;6.190;2024-03-08T03:48:30;99108.00;;;1.16;77.71
63447;BME280;49577;49.872;6.190;2024-03-08T03:50:57;99105.79;;;1.16;77.50
63447;BME280;49577;49.872;6.190;2024-03-08T03:53:22;99104.91;;;1.11;77.18
63447;BME280;49577;49.872;6.190;2024-03-08T03:55:47;99106.77;;;1.06;77.64
63447;BME280;49577;49.872;6.190;2024-03-08T03:58:12;99105.55;;;1.07;77.59
63447;BME280;49577;49.872;6.190;2024-03-08T04:00:38;99101.81;;;1.05;77.47
63447;BME280;49577;49.872;6.190;2024-03-08T04:03:03;99097.23;;;1.05;77.69
63447;BME280;49577;49.872;6.190;2024-03-08T04:05:29;99096.58;;;1.03;77.69
63447;BME280;49577;49.872;6.190;2024-03-08T04:07:54;99096.23;;;1.02;77.99
63447;BME280;49577;49.872;6.190;2024-03-08T04:10:19;99092.58;;;1.04;78.11
63447;BME280;49577;49.872;6.190;2024-03-08T04:12:45;99095.24;;;1.07;77.97
63447;BME280;49577;49.872;6.190;2024-03-08T04:15:10;99092.05;;;1.04;77.81
63447;BME280;49577;49.872;6.190;2024-03-08T04:17:36;99092.27;;;1.03;77.72
63447;BME280;49577;49.872;6.190;2024-03-08T04:20:02;99091.48;;;1.01;77.83
63447;BME280;49577;49.872;6.190;2024-03-08T04:22:34;99090.27;;;1.01;78.00
63447;BME280;49577;49.872;6.190;2024-03-08T04:25:00;99085.40;;;1.03;78.12
63447;BME280;49577;49.872;6.190;2024-03-08T04:27:25;99084.66;;;1.05;78.06
63447;BME280;49577;49.872;6.190;2024-03-08T04:29:50;99081.70;;;1.06;77.86
63447;BME280;49577;49.872;6.190;2024-03-08T04:32:16;99086.12;;;1.07;77.74
63447;BME280;49577;49.872;6.190;2024-03-08T04:34:42;99085.09;;;1.07;77.71
63447;BME280;49577;49.872;6.190;2024-03-08T04:37:07;99083.95;;;1.05;77.89
63447;BME280;49577;49.872;6.190;2024-03-08T04:39:35;99085.89;;;1.04;77.73
63447;BME280;49577;49.872;6.190;2024-03-08T04:42:02;99084.94;;;1.01;77.75
63447;BME280;49577;49.872;6.190;2024-03-08T04:44:35;99081.74;;;0.98;77.60
63447;BME280;49577;49.872;6.190;2024-03-08T04:47:00;99079.45;;;0.95;77.81
63447;BME280;49577;49.872;6.190;2024-03-08T04:49:26;99075.71;;;0.93;78.07
63447;BME280;49577;49.872;6.190;2024-03-08T04:51:52;99074.02;;;0.93;78.01
63447;BME280;49577;49.872;6.190;2024-03-08T04:54:18;99070.97;;;0.91;77.97
63447;BME280;49577;49.872;6.190;2024-03-08T04:56:43;99068.39;;;0.91;78.03
63447;BME280;49577;49.872;6.190;2024-03-08T04:59:09;99066.10;;;0.93;78.24
63447;BME280;49577;49.872;6.190;2024-03-08T05:01:34;99065.06;;;0.93;77.95
63447;BME280;49577;49.872;6.190;2024-03-08T05:04:03;99060.57;;;0.94;78.01
63447;BME280;49577;49.872;6.190;2024-03-08T05:06:28;99058.69;;;0.94;77.85
63447;BME280;49577;49.872;6.190;2024-03-08T05:08:55;99058.71;;;0.93;77.98
63447;BME280;49577;49.872;6.190;2024-03-08T05:11:20;99059.23;;;0.93;78.21
63447;BME280;49577;49.872;6.190;2024-03-08T05:13:45;99051.64;;;0.93;78.02
63447;BME280;49577;49.872;6.190;2024-03-08T05:16:11;99059.58;;;0.93;77.86
63447;BME280;49577;49.872;6.190;2024-03-08T05:18:36;99059.01;;;0.89;77.84
63447;BME280;49577;49.872;6.190;2024-03-08T05:21:02;99061.27;;;0.88;78.11
63447;BME280;49577;49.872;6.190;2024-03-08T05:23:29;99062.30;;;0.88;78.03
63447;BME280;49577;49.872;6.190;2024-03-08T05:25:54;99061.44;;;0.88;78.24
63447;BME280;49577;49.872;6.190;2024-03-08T05:28:19;99060.39;;;0.89;78.08
63447;BME280;49577;49.872;6.190;2024-03-08T05:30:45;99059.13;;;0.85;78.00
63447;BME280;49577;49.872;6.190;2024-03-08T05:33:10;99058.67;;;0.83;77.99
63447;BME280;49577;49.872;6.190;2024-03-08T05:35:36;99056.92;;;0.79;78.01
63447;BME280;49577;49.872;6.190;2024-03-08T05:38:01;99056.69;;;0.75;78.26
63447;BME280;49577;49.872;6.190;2024-03-08T05:40:27;99053.30;;;0.74;78.02
63447;BME280;49577;49.872;6.190;2024-03-08T05:42:57;99052.96;;;0.73;78.08
63447;BME280;49577;49.872;6.190;2024-03-08T05:45:22;99053.86;;;0.73;78.19
63447;BME280;49577;49.872;6.190;2024-03-08T05:47:50;99054.73;;;0.72;78.27
63447;BME280;49577;49.872;6.190;2024-03-08T05:50:16;99055.59;;;0.72;78.28
63447;BME280;49577;49.872;6.190;2024-03-08T05:52:42;99054.02;;;0.72;78.32
63447;BME280;49577;49.872;6.190;2024-03-08T05:55:08;99052.55;;;0.76;78.24
63447;BME280;49577;49.872;6.190;2024-03-08T05:57:35;99051.86;;;0.76;78.36
63447;BME280;49577;49.872;6.190;2024-03-08T06:00:03;99053.23;;;0.77;78.35
63447;BME280;49577;49.872;6.190;2024-03-08T06:02:28;99047.33;;;0.78;78.27
63447;BME280;49577;49.872;6.190;2024-03-08T06:04:53;99044.04;;;0.79;78.20
63447;BME280;49577;49.872;6.190;2024-03-08T06:07:19;99043.16;;;0.79;78.20
63447;BME280;49577;49.872;6.190;2024-03-08T06:09:45;99040.09;;;0.79;77.90
63447;BME280;49577;49.872;6.190;2024-03-08T06:12:11;99038.73;;;0.78;78.01
63447;BME280;49577;49.872;6.190;2024-03-08T06:14:37;99037.96;;;0.81;78.05
63447;BME280;49577;49.872;6.190;2024-03-08T06:17:02;99041.11;;;0.84;77.88
63447;BME280;49577;49.872;6.190;2024-03-08T06:19:28;99041.70;;;0.87;77.83
63447;BME280;49577;49.872;6.190;2024-03-08T06:21:53;99035.42;;;0.90;77.92
63447;BME280;49577;49.872;6.190;2024-03-08T06:24:18;99033.91;;;0.94;77.97
63447;BME280;49577;49.872;6.190;2024-03-08T06:26:44;99032.73;;;1.14;77.89
63447;BME280;49577;49.872;6.190;2024-03-08T06:29:09;99026.80;;;1.51;77.55
63447;BME280;49577;49.872;6.190;2024-03-08T06:31:35;99028.52;;;1.99;76.56
63447;BME280;49577;49.872;6.190;2024-03-08T06:34:04;99023.10;;;2.47;75.27
63447;BME280;49577;49.872;6.190;2024-03-08T06:36:32;99027.08;;;2.85;73.35
63447;BME280;49577;49.872;6.190;2024-03-08T06:38:57;99027.77;;;3.15;73.21
63447;BME280;49577;49.872;6.190;2024-03-08T06:41:23;99025.42;;;3.42;71.88
63447;BME280;49577;49.872;6.190;2024-03-08T06:43:48;99025.66;;;3.76;70.44
63447;BME280;49577;49.872;6.190;2024-03-08T06:46:16;99018.73;;;4.07;69.44
63447;BME280;49577;49.872;6.190;2024-03-08T06:48:42;99016.44;;;4.35;69.10
63447;BME280;49577;49.872;6.190;2024-03-08T06:51:08;99014.48;;;4.68;66.94
63447;BME280;49577;49.872;6.190;2024-03-08T06:53:33;99011.52;;;5.08;66.56
63447;BME280;49577;49.872;6.190;2024-03-08T06:56:00;99005.34;;;5.64;63.56
63447;BME280;49577;49.872;6.190;2024-03-08T06:58:25;99003.73;;;6.09;62.00
63447;BME280;49577;49.872;6.190;2024-03-08T07:00:50;99000.86;;;6.51;61.20
63447;BME280;49577;49.872;6.190;2024-03-08T07:03:17;99002.30;;;7.00;59.38
63447;BME280;49577;49.872;6.190;2024-03-08T07:05:42;99000.45;;;7.49;57.73
63447;BME280;49577;49.872;6.190;2024-03-08T07:08:08;99002.96;;;7.93;56.17
63447;BME280;49577;49.872;6.190;2024-03-08T07:10:33;99002.90;;;8.31;54.87
63447;BME280;49577;49.872;6.190;2024-03-08T07:12:59;98997.66;;;8.73;54.88
63447;BME280;49577;49.872;6.190;2024-03-08T07:15:27;98992.81;;;9.33;54.17
63447;BME280;49577;49.872;6.190;2024-03-08T07:17:53;98994.52;;;9.92;53.01
63447;BME280;49577;49.872;6.190;2024-03-08T07:20:18;98990.81;;;10.44;51.11
63447;BME280;49577;49.872;6.190;2024-03-08T07:22:48;98990.67;;;10.87;49.41
63447;BME280;49577;49.872;6.190;2024-03-08T07:25:14;98992.15;;;11.29;48.92
63447;BME280;49577;49.872;6.190;2024-03-08T07:27:53;98992.59;;;11.78;48.46
63447;BME280;49577;49.872;6.190;2024-03-08T07:30:21;98988.02;;;12.23;46.62
63447;BME280;49577;49.872;6.190;2024-03-08T07:33:05;98982.83;;;12.72;45.58
63447;BME280;49577;49.872;6.190;2024-03-08T07:35:32;98981.16;;;13.18;45.03
63447;BME280;49577;49.872;6.190;2024-03-08T07:37:57;98977.77;;;13.47;41.95
63447;BME280;49577;49.872;6.190;2024-03-08T07:40:24;98982.63;;;13.63;42.05
63447;BME280;49577;49.872;6.190;2024-03-08T07:42:50;98974.08;;;13.95;42.58
63447;BME280;49577;49.872;6.190;2024-03-08T07:45:16;98969.74;;;14.47;41.24
63447;BME280;49577;49.872;6.190;2024-03-08T07:47:41;98971.00;;;14.68;38.01
63447;BME280;49577;49.872;6.190;2024-03-08T07:50:07;98970.84;;;14.61;39.42
63447;BME280;49577;49.872;6.190;2024-03-08T07:52:33;98974.00;;;14.88;38.61
63447;BME280;49577;49.872;6.190;2024-03-08T07:54:59;98971.27;;;14.97;37.20
63447;BME280;49577;49.872;6.190;2024-03-08T07:57:24;98965.48;;;15.04;36.79
63447;BME280;49577;49.872;6.190;2024-03-08T07:59:51;98965.27;;;14.89;37.04
63447;BME280;49577;49.872;6.190;2024-03-08T08:02:16;98966.52;;;15.14;37.06
63447;BME280;49577;49.872;6.190;2024-03-08T08:04:41;98958.20;;;15.41;36.24
63447;BME280;49577;49.872;6.190;2024-03-08T08:07:07;98956.04;;;15.51;36.56
63447;BME280;49577;49.872;6.190;2024-03-08T08:09:33;98952.83;;;15.89;35.80
63447;BME280;49577;49.872;6.190;2024-03-08T08:12:00;98950.73;;;15.83;34.50
63447;BME280;49577;49.872;6.190;2024-03-08T08:14:26;98952.46;;;15.93;35.16
63447;BME280;49577;49.872;6.190;2024-03-08T08:16:52;98947.52;;;16.21;35.13
63447;BME280;49577;49.872;6.190;2024-03-08T08:19:18;98948.48;;;16.44;33.39
63447;BME280;49577;49.872;6.190;2024-03-08T08:21:43;98945.98;;;16.38;33.62
63447;BME280;49577;49.872;6.190;2024-03-08T08:24:08;98939.52;;;16.43;33.29
63447;BME280;49577;49.872;6.190;2024-03-08T08:26:34;98936.48;;;16.38;33.53
63447;BME280;49577;49.872;6.190;2024-03-08T08:29:01;98934.06;;;16.61;33.68
63447;BME280;49577;49.872;6.190;2024-03-08T08:31:26;98932.70;;;16.64;32.18
63447;BME280;49577;49.872;6.190;2024-03-08T08:33:52;98928.52;;;16.31;32.33
63447;BME280;49577;49.872;6.190;2024-03-08T08:36:26;98928.30;;;16.28;32.95
63447;BME280;49577;49.872;6.190;2024-03-08T08:38:54;98926.73;;;16.29;32.71
63447;BME280;49577;49.872;6.190;2024-03-08T08:41:20;98919.91;;;16.33;32.76
63447;BME280;49577;49.872;6.190;2024-03-08T08:43:46;98920.41;;;16.58;32.57
63447;BME280;49577;49.872;6.190;2024-03-08T08:46:12;98916.09;;;16.74;32.19
63447;BME280;49577;49.872;6.190;2024-03-08T08:48:38;98910.04;;;16.81;31.92
63447;BME280;49577;49.872;6.190;2024-03-08T08:51:03;98908.85;;;16.77;31.84
63447;BME280;49577;49.872;6.190;2024-03-08T08:53:31;98911.38;;;16.84;31.88
63447;BME280;49577;49.872;6.190;2024-03-08T08:55:56;98913.05;;;16.85;31.31
63447;BME280;49577;49.872;6.190;2024-03-08T08:58:22;98905.88;;;17.04;31.83
63447;BME280;49577;49.872;6.190;2024-03-08T09:00:47;98904.39;;;17.39;31.86
63447;BME280;49577;49.872;6.190;2024-03-08T09:03:12;98900.92;;;17.62;30.87
63447;BME280;49577;49.872;6.190;2024-03-08T09:05:38;98897.62;;;17.59;30.88
63447;BME280;49577;49.872;6.190;2024-03-08T09:08:03;98891.06;;;17.59;30.79
63447;BME280;49577;49.872;6.190;2024-03-08T09:10:28;98896.84;;;17.37;30.39
63447;BME280;49577;49.872;6.190;2024-03-08T09:12:53;98891.94;;;17.25;31.03
63447;BME280;49577;49.872;6.190;2024-03-08T09:15:20;98890.98;;;17.70;31.70
63447;BME280;49577;49.872;6.190;2024-03-08T09:17:45;98887.09;;;18.26;31.09
63447;BME280;49577;49.872;6.190;2024-03-08T09:20:11;98884.23;;;18.76;30.09
63447;BME280;49577;49.872;6.190;2024-03-08T09:22:40;98882.30;;;18.94;29.06
63447;BME280;49577;49.872;6.190;2024-03-08T09:25:05;98882.83;;;19.00;29.38
63447;BME280;49577;49.872;6.190;2024-03-08T09:27:32;98880.03;;;19.11;28.46
63447;BME280;49577;49.872;6.190;2024-03-08T09:29:58;98875.96;;;18.87;29.04
63447;BME280;49577;49.872;6.190;2024-03-08T09:32:24;98874.48;;;18.76;28.75
63447;BME280;49577;49.872;6.190;2024-03-08T09:34:49;98863.93;;;18.62;29.22
63447;BME280;49577;49.872;6.190;2024-03-08T09:37:15;98866.98;;;18.57;29.62
63447;BME280;49577;49.872;6.190;2024-03-08T09:39:40;98859.59;;;18.58;28.98
63447;BME280;49577;49.872;6.190;2024-03-08T09:42:06;98864.95;;;18.58;29.48
63447;BME280;49577;49.872;6.190;2024-03-08T09:44:31;98860.91;;;18.71;28.68
63447;BME280;49577;49.872;6.190;2024-03-08T09:46:57;98856.95;;;18.73;29.22
63447;BME280;49577;49.872;6.190;2024-03-08T09:49:23;98856.36;;;18.88;29.30
63447;BME280;49577;49.872;6.190;2024-03-08T09:51:48;98846.14;;;19.14;29.47
63447;BME280;49577;49.872;6.190;2024-03-08T09:54:16;98842.61;;;19.32;28.31
63447;BME280;49577;49.872;6.190;2024-03-08T09:56:41;98836.85;;;19.36;28.46
63447;BME280;49577;49.872;6.190;2024-03-08T09:59:09;98838.81;;;19.35;28.16
63447;BME280;49577;49.872;6.190;2024-03-08T10:01:53;98831.50;;;19.27;28.63
63447;BME280;49577;49.872;6.190;2024-03-08T10:04:24;98822.52;;;19.71;28.24
63447;BME280;49577;49.872;6.190;2024-03-08T10:06:49;98818.80;;;19.73;27.85
63447;BME280;49577;49.872;6.190;2024-03-08T10:09:14;98813.75;;;19.97;27.89
63447;BME280;49577;49.872;6.190;2024-03-08T10:11:41;98810.70;;;20.07;27.53
63447;BME280;49577;49.872;6.190;2024-03-08T10:14:07;98810.52;;;20.14;27.92
63447;BME280;49577;49.872;6.190;2024-03-08T10:16:33;98815.15;;;20.48;27.49
63447;BME280;49577;49.872;6.190;2024-03-08T10:19:00;98813.94;;;20.78;26.60
63447;BME280;49577;49.872;6.190;2024-03-08T10:21:27;98807.88;;;20.60;26.73
63447;BME280;49577;49.872;6.190;2024-03-08T10:23:53;98800.95;;;20.57;27.07
63447;BME280;49577;49.872;6.190;2024-03-08T10:26:18;98806.45;;;20.62;27.06
63447;BME280;49577;49.872;6.190;2024-03-08T10:28:49;98799.45;;;20.92;27.03
63447;BME280;49577;49.872;6.190;2024-03-08T10:31:14;98798.56;;;21.21;26.61
63447;BME280;49577;49.872;6.190;2024-03-08T10:33:40;98802.89;;;21.45;25.81
63447;BME280;49577;49.872;6.190;2024-03-08T10:36:09;98797.64;;;21.52;25.30
63447;BME280;49577;49.872;6.190;2024-03-08T10:38:38;98793.98;;;21.61;25.69
63447;BME280;49577;49.872;6.190;2024-03-08T10:41:07;98793.05;;;21.66;25.40
63447;BME280;49577;49.872;6.190;2024-03-08T10:43:37;98785.73;;;21.77;25.59
63447;BME280;49577;49.872;6.190;2024-03-08T10:48:49;98786.12;;;21.82;25.41
63447;BME280;49577;49.872;6.190;2024-03-08T10:51:15;98787.89;;;21.87;25.45
63447;BME280;49577;49.872;6.190;2024-03-08T10:53:40;98787.85;;;21.87;24.96
63447;BME280;49577;49.872;6.190;2024-03-08T10:56:06;98779.25;;;21.70;24.82
63447;BME280;49577;49.872;6.190;2024-03-08T10:58:32;98774.15;;;21.73;25.15
63447;BME280;49577;49.872;6.190;2024-03-08T11:00:59;98774.23;;;21.81;25.36
63447;BME280;49577;49.872;6.190;2024-03-08T11:06:19;98762.10;;;21.52;25.21
63447;BME280;49577;49.872;6.190;2024-03-08T11:08:48;98766.36;;;21.39;25.28
63447;BME280;49577;49.872;6.190;2024-03-08T11:11:25;98761.69;;;21.16;25.36
63447;BME280;49577;49.872;6.190;2024-03-08T11:13:56;98753.27;;;21.27;25.81
63447;BME280;49577;49.872;6.190;2024-03-08T11:16:43;98749.14;;;21.52;26.03
63447;BME280;49577;49.872;6.190;2024-03-08T11:19:22;98750.38;;;21.77;25.13
63447;BME280;49577;49.872;6.190;2024-03-08T11:21:56;98744.80;;;21.67;24.88
63447;BME280;49577;49.872;6.190;2024-03-08T11:24:22;98738.73;;;20.92;25.24
63447;BME280;49577;49.872;6.190;2024-03-08T11:26:47;98739.53;;;20.73;26.29
63447;BME280;49577;49.872;6.190;2024-03-08T11:32:17;98741.27;;;20.91;25.61
63447;BME280;49577;49.872;6.190;2024-03-08T11:34:45;98735.31;;;20.93;26.26
63447;BME280;49577;49.872;6.190;2024-03-08T11:37:14;98732.56;;;21.45;26.08
63447;BME280;49577;49.872;6.190;2024-03-08T11:39:45;98725.59;;;21.69;25.46
63447;BME280;49577;49.872;6.190;2024-03-08T11:42:11;98725.73;;;21.60;25.53
63447;BME280;49577;49.872;6.190;2024-03-08T11:44:37;98726.61;;;21.68;25.47
63447;BME280;49577;49.872;6.190;2024-03-08T11:47:02;98722.07;;;21.70;25.35
63447;BME280;49577;49.872;6.190;2024-03-08T11:49:31;98716.81;;;21.78;25.76
63447;BME280;49577;49.872;6.190;2024-03-08T11:51:56;98712.35;;;22.03;25.32
63447;BME280;49577;49.872;6.190;2024-03-08T11:54:22;98708.82;;;21.94;25.14
63447;BME280;49577;49.872;6.190;2024-03-08T11:56:48;98707.50;;;21.61;25.02
63447;BME280;49577;49.872;6.190;2024-03-08T11:59:16;98698.70;;;21.64;25.94
63447;BME280;49577;49.872;6.190;2024-03-08T12:01:42;98690.37;;;21.73;25.18
63447;BME280;49577;49.872;6.190;2024-03-08T12:04:11;98681.85;;;21.44;25.52
63447;BME280;49577;49.872;6.190;2024-03-08T12:06:37;98675.98;;;21.24;25.45
63447;BME280;49577;49.872;6.190;2024-03-08T12:09:09;98667.40;;;20.97;26.05
63447;BME280;49577;49.872;6.190;2024-03-08T12:11:35;98660.13;;;20.73;26.58
63447;BME280;49577;49.872;6.190;2024-03-08T12:14:01;98655.28;;;20.54;26.46
63447;BME280;49577;49.872;6.190;2024-03-08T12:16:26;98649.52;;;20.24;26.67
63447;BME280;49577;49.872;6.190;2024-03-08T12:18:52;98637.46;;;19.84;26.96
63447;BME280;49577;49.872;6.190;2024-03-08T12:21:19;98634.41;;;19.60;27.75
63447;BME280;49577;49.872;6.190;2024-03-08T12:24:01;98633.15;;;19.79;27.41
63447;BME280;49577;49.872;6.190;2024-03-08T12:26:27;98632.87;;;19.76;27.29
63447;BME280;49577;49.872;6.190;2024-03-08T12:28:53;98636.02;;;19.94;27.41
63447;BME280;49577;49.872;6.190;2024-03-08T12:31:18;98636.68;;;20.14;27.22
63447;BME280;49577;49.872;6.190;2024-03-08T12:33:48;98629.36;;;20.25;27.10
63447;BME280;49577;49.872;6.190;2024-03-08T12:36:14;98616.30;;;20.00;27.71
63447;BME280;49577;49.872;6.190;2024-03-08T12:38:39;98609.70;;;19.76;27.92
63447;BME280;49577;49.872;6.190;2024-03-08T12:41:05;98598.35;;;19.85;27.56
63447;BME280;49577;49.872;6.190;2024-03-08T12:43:30;98591.62;;;19.96;27.97
63447;BME280;49577;49.872;6.190;2024-03-08T12:45:56;98590.76;;;19.81;27.78
63447;BME280;49577;49.872;6.190;2024-03-08T12:48:22;98591.12;;;19.59;27.77
63447;BME280;49577;49.872;6.190;2024-03-08T12:50:47;98586.19;;;19.16;28.18
63447;BME280;49577;49.872;6.190;2024-03-08T12:53:13;98584.63;;;18.61;29.11
63447;BME280;49577;49.872;6.190;2024-03-08T12:55:38;98581.80;;;17.89;30.44
63447;BME280;49577;49.872;6.190;2024-03-08T12:58:04;98582.55;;;17.38;31.06
63447;BME280;49577;49.872;6.190;2024-03-08T13:00:32;98578.95;;;16.80;31.38
63447;BME280;49577;49.872;6.190;2024-03-08T13:02:58;98568.45;;;16.13;32.80
63447;BME280;49577;49.872;6.190;2024-03-08T13:05:24;98564.50;;;15.65;34.05
63447;BME280;49577;49.872;6.190;2024-03-08T13:07:49;98566.56;;;15.30;34.33
63447;BME280;49577;49.872;6.190;2024-03-08T13:10:15;98557.44;;;15.08;34.95
63447;BME280;49577;49.872;6.190;2024-03-08T13:12:41;98550.44;;;14.77;35.53